createdAt,value
2023-01-20T00:01:12.212Z,96730.03
2023-01-20T00:03:40.852Z,96752.34
2023-01-20T00:06:09.997Z,96745.50
2023-01-20T00:08:38.184Z,96760.94
2023-01-20T00:11:07.123Z,96771.25
2023-01-20T00:13:37.525Z,96762.69
2023-01-20T00:16:06.534Z,96770.41
2023-01-20T00:18:35.174Z,96772.94
2023-01-20T00:21:05.075Z,96781.53
2023-01-20T00:23:33.804Z,96723.25
2023-01-20T00:26:05.982Z,96789.28
2023-01-20T00:28:34.621Z,96782.41
2023-01-20T00:31:13.630Z,96795.28
2023-01-20T00:33:42.132Z,96812.44
2023-01-20T00:36:10.949Z,96815.00
2023-01-20T00:38:39.177Z,96809.88
2023-01-20T00:41:08.236Z,96815.88
2023-01-20T00:43:36.764Z,96803.03
2023-01-20T00:46:05.525Z,96830.47
2023-01-20T00:48:35.961Z,96811.59
2023-01-20T00:51:04.906Z,96857.13
2023-01-20T00:53:33.541Z,96835.66
2023-01-20T00:56:01.660Z,96837.38
2023-01-20T00:58:29.971Z,96839.09
2023-01-20T01:00:59.062Z,96736.97
2023-01-20T01:03:28.203Z,96815.88
2023-01-20T01:06:07.207Z,96839.06
2023-01-20T01:08:36.137Z,96833.06
2023-01-20T01:11:04.771Z,96828.75
2023-01-20T01:13:33.147Z,96767.84
2023-01-20T01:16:01.768Z,96821.91
2023-01-20T01:18:30.129Z,96836.50
2023-01-20T01:21:00.527Z,96815.91
2023-01-20T01:23:28.726Z,96814.19
2023-01-20T01:25:57.639Z,96840.78
2023-01-20T01:28:25.797Z,96834.78
2023-01-20T01:30:54.047Z,96832.19
2023-01-20T01:33:22.219Z,96842.50
2023-01-20T01:35:56.737Z,96837.34
2023-01-20T01:38:26.680Z,96837.34
2023-01-20T01:40:56.412Z,96833.03
2023-01-20T01:43:26.341Z,96834.72
2023-01-20T01:45:54.699Z,96824.44
2023-01-20T01:48:25.291Z,96771.19
2023-01-20T01:50:56.392Z,96833.00
2023-01-20T01:53:28.353Z,96806.41
2023-01-20T01:56:00.509Z,96824.44
2023-01-20T01:58:33.175Z,96796.09
2023-01-20T02:01:01.604Z,96820.16
2023-01-20T02:03:36.093Z,96826.16
2023-01-20T02:06:06.104Z,96821.00
2023-01-20T02:08:36.449Z,96827.88
2023-01-20T02:11:04.672Z,96803.84
2023-01-20T02:13:33.211Z,96842.47
2023-01-20T02:16:06.643Z,96822.72
2023-01-20T02:18:45.702Z,96758.34
2023-01-20T02:21:53.851Z,96827.06
2023-01-20T02:25:04.005Z,96827.88
2023-01-20T02:27:53.663Z,96779.81
2023-01-20T02:30:40.019Z,96738.59
2023-01-20T02:33:14.563Z,96800.44
2023-01-20T02:35:47.664Z,96761.78
2023-01-20T02:38:26.993Z,96831.31
2023-01-20T02:41:00.551Z,96802.16
2023-01-20T02:43:36.863Z,96397.53
2023-01-20T02:46:13.337Z,96802.16
2023-01-20T02:48:48.171Z,96755.78
2023-01-20T02:51:21.259Z,96686.31
2023-01-20T02:53:53.526Z,96802.13
2023-01-20T02:56:24.904Z,96801.25
2023-01-20T02:58:58.101Z,96812.41
2023-01-20T03:01:31.953Z,96781.47
2023-01-20T03:04:05.148Z,96814.97
2023-01-20T03:06:39.267Z,96822.69
2023-01-20T03:09:10.306Z,96821.81
2023-01-20T03:11:42.727Z,96832.97
2023-01-20T03:14:13.284Z,96832.16
2023-01-20T03:16:42.637Z,96790.94
2023-01-20T03:19:12.609Z,96798.69
2023-01-20T03:21:40.842Z,96828.72
2023-01-20T03:24:09.298Z,96820.97
2023-01-20T03:26:37.540Z,96739.41
2023-01-20T03:29:07.816Z,96800.34
2023-01-20T03:31:39.363Z,96796.09
2023-01-20T03:34:12.839Z,96820.13
2023-01-20T03:36:44.943Z,96597.75
2023-01-20T03:39:13.625Z,96813.25
2023-01-20T03:41:53.730Z,96826.97
2023-01-20T03:44:29.136Z,96820.16
2023-01-20T03:47:08.742Z,96684.47
2023-01-20T03:49:44.235Z,96832.09
2023-01-20T03:52:48.120Z,96834.63
2023-01-20T03:55:17.609Z,96830.28
2023-01-20T03:57:52.450Z,96830.34
2023-01-20T04:00:22.902Z,96832.88
2023-01-20T04:02:52.077Z,96836.31
2023-01-20T04:05:20.602Z,96842.28
2023-01-20T04:07:52.995Z,96833.66
2023-01-20T04:10:21.409Z,96823.38
2023-01-20T04:12:50.006Z,96823.41
2023-01-20T04:15:19.875Z,96805.34
2023-01-20T04:17:48.062Z,96730.63
2023-01-20T04:20:17.343Z,96768.44
2023-01-20T04:22:50.423Z,96844.91
2023-01-20T04:25:25.349Z,96823.41
2023-01-20T04:27:53.506Z,96823.28
2023-01-20T04:30:21.663Z,96850.06
2023-01-20T04:32:49.876Z,96862.06
2023-01-20T04:35:19.913Z,96856.94
2023-01-20T04:37:49.528Z,96838.03
2023-01-20T04:40:18.146Z,96882.59
2023-01-20T04:42:46.321Z,96875.69
2023-01-20T04:45:17.473Z,96882.53
2023-01-20T04:47:46.401Z,96867.00
2023-01-20T04:50:15.397Z,96874.63
2023-01-20T04:52:44.139Z,96827.44
2023-01-20T04:55:14.236Z,96892.78
2023-01-20T04:57:42.645Z,96889.34
2023-01-20T05:00:18.641Z,96805.16
2023-01-20T05:02:47.238Z,96830.09
2023-01-20T05:05:15.849Z,96904.03
2023-01-20T05:07:44.350Z,96882.59
2023-01-20T05:10:14.311Z,96907.53
2023-01-20T05:12:42.758Z,96913.53
2023-01-20T05:15:11.664Z,96910.97
2023-01-20T05:17:39.911Z,96923.78
2023-01-20T05:20:08.899Z,96914.31
2023-01-20T05:22:36.980Z,96900.53
2023-01-20T05:25:05.671Z,96925.47
2023-01-20T05:27:37.949Z,96920.34
2023-01-20T05:30:07.598Z,96883.31
2023-01-20T05:32:35.799Z,96927.19
2023-01-20T05:35:03.974Z,96914.44
2023-01-20T05:37:32.187Z,96917.88
2023-01-20T05:40:00.319Z,96910.13
2023-01-20T05:42:28.541Z,96856.84
2023-01-20T05:44:58.161Z,96904.97
2023-01-20T05:47:26.399Z,96899.00
2023-01-20T05:49:54.534Z,96921.28
2023-01-20T05:52:22.778Z,96892.06
2023-01-20T05:54:51.004Z,96894.63
2023-01-20T05:57:19.305Z,96896.41
2023-01-20T05:59:47.837Z,96880.81
2023-01-20T06:02:18.889Z,96885.16
2023-01-20T06:04:47.545Z,96437.22
2023-01-20T06:07:16.217Z,96843.09
2023-01-20T06:09:44.356Z,96892.16
2023-01-20T06:12:12.559Z,96891.28
2023-01-20T06:14:40.729Z,96893.75
2023-01-20T06:17:08.937Z,96756.34
2023-01-20T06:19:38.537Z,96892.84
2023-01-20T06:22:08.837Z,96848.22
2023-01-20T06:24:36.947Z,96864.59
2023-01-20T06:27:05.305Z,96844.88
2023-01-20T06:29:33.528Z,96861.22
2023-01-20T06:32:01.655Z,96868.94
2023-01-20T06:34:29.794Z,96865.53
2023-01-20T06:36:59.564Z,96870.66
2023-01-20T06:39:27.797Z,96820.84
2023-01-20T06:41:59.158Z,96852.63
2023-01-20T06:44:27.833Z,96860.38
2023-01-20T06:46:57.510Z,96861.28
2023-01-20T06:49:25.912Z,96845.00
2023-01-20T06:51:54.153Z,96845.88
2023-01-20T06:54:23.953Z,96704.25
2023-01-20T06:56:52.196Z,96796.13
2023-01-20T06:59:20.347Z,96844.19
2023-01-20T07:01:48.609Z,96841.63
2023-01-20T07:04:16.861Z,96844.22
2023-01-20T07:06:45.035Z,96837.34
2023-01-20T07:09:14.360Z,96832.22
2023-01-20T07:11:44.089Z,96833.94
2023-01-20T07:14:12.338Z,96851.97
2023-01-20T07:16:40.619Z,96857.09
2023-01-20T07:19:09.167Z,96858.81
2023-01-20T07:21:37.648Z,96838.19
2023-01-20T07:24:06.755Z,96856.25
2023-01-20T07:26:35.260Z,96701.78
2023-01-20T07:29:04.999Z,96779.00
2023-01-20T07:31:34.387Z,96838.22
2023-01-20T07:34:02.880Z,96845.94
2023-01-20T07:36:30.990Z,96858.81
2023-01-20T07:38:59.316Z,96833.06
2023-01-20T07:41:27.495Z,96857.94
2023-01-20T07:43:55.964Z,96846.78
2023-01-20T07:46:25.577Z,96862.22
2023-01-20T07:48:53.891Z,96863.06
2023-01-20T07:51:22.090Z,96856.16
2023-01-20T07:53:52.150Z,96863.91
2023-01-20T07:56:24.589Z,96835.53
2023-01-20T07:58:55.192Z,96848.44
2023-01-20T08:01:27.275Z,96851.00
2023-01-20T08:03:55.866Z,96837.28
2023-01-20T08:06:26.027Z,96881.88
2023-01-20T08:08:56.599Z,96887.94
2023-01-20T08:11:26.046Z,96899.09
2023-01-20T08:13:54.430Z,96849.31
2023-01-20T08:16:22.812Z,96875.91
2023-01-20T08:18:54.979Z,96652.03
2023-01-20T08:21:25.486Z,96897.38
2023-01-20T08:23:56.057Z,96899.06
2023-01-20T08:26:25.362Z,96892.19
2023-01-20T08:28:54.064Z,96901.63
2023-01-20T08:31:24.684Z,96896.47
2023-01-20T08:33:56.638Z,96886.16
2023-01-20T08:36:27.371Z,96902.44
2023-01-20T08:38:57.024Z,96901.59
2023-01-20T08:41:27.661Z,96909.34
2023-01-20T08:43:56.911Z,96922.22
2023-01-20T08:46:25.229Z,96895.56
2023-01-20T08:48:56.247Z,96915.31
2023-01-20T08:51:27.035Z,96909.28
2023-01-20T08:53:55.388Z,96917.88
2023-01-20T08:56:23.947Z,96884.44
2023-01-20T08:58:54.178Z,96917.91
2023-01-20T09:01:28.008Z,96923.09
2023-01-20T09:04:05.936Z,96853.56
2023-01-20T09:06:40.084Z,96920.44
2023-01-20T09:09:08.438Z,96826.03
2023-01-20T09:11:36.714Z,96919.63
2023-01-20T09:14:04.979Z,96887.81
2023-01-20T09:16:33.187Z,96906.69
2023-01-20T09:19:03.227Z,96911.84
2023-01-20T09:21:31.468Z,96913.63
2023-01-20T09:23:59.640Z,96912.72
2023-01-20T09:26:35.778Z,96910.13
2023-01-20T09:29:09.730Z,96906.69
2023-01-20T09:31:39.764Z,96859.47
2023-01-20T09:34:09.648Z,96861.16
2023-01-20T09:36:37.920Z,96906.59
2023-01-20T09:39:19.956Z,96915.16
2023-01-20T09:42:07.398Z,96897.16
2023-01-20T09:44:48.254Z,96919.44
2023-01-20T09:47:26.995Z,96879.97
2023-01-20T09:50:41.445Z,96919.44
2023-01-20T09:53:16.465Z,96922.03
2023-01-20T09:55:51.411Z,96928.91
2023-01-20T09:58:30.450Z,96920.28
2023-01-20T10:01:08.226Z,96867.94
2023-01-20T10:03:43.456Z,96917.69
2023-01-20T10:06:20.128Z,96900.50
2023-01-20T10:09:04.796Z,96910.78
2023-01-20T10:11:39.411Z,96910.75
2023-01-20T10:14:15.548Z,96909.03
2023-01-20T10:16:51.829Z,96842.97
2023-01-20T10:19:28.275Z,96903.91
2023-01-20T10:22:06.159Z,96914.19
2023-01-20T10:24:41.050Z,96885.00
2023-01-20T10:27:09.276Z,96881.47
2023-01-20T10:29:39.365Z,96891.72
2023-01-20T10:32:14.842Z,96722.88
2023-01-20T10:34:46.647Z,96895.16
2023-01-20T10:37:16.659Z,96882.28
2023-01-20T10:39:51.061Z,96892.59
2023-01-20T10:42:20.685Z,96868.53
2023-01-20T10:44:51.109Z,96882.25
2023-01-20T10:47:40.250Z,96883.16
2023-01-20T10:50:35.989Z,96856.56
2023-01-20T10:53:22.150Z,96886.59
2023-01-20T10:56:03.744Z,96880.56
2023-01-20T10:58:35.041Z,96902.00
2023-01-20T11:01:09.056Z,96891.75
2023-01-20T11:03:40.796Z,96908.00
2023-01-20T11:06:15.067Z,96878.78
2023-01-20T11:08:44.728Z,96898.50
2023-01-20T11:11:16.019Z,96896.81
2023-01-20T11:13:44.409Z,96845.34
2023-01-20T11:16:17.732Z,96905.38
2023-01-20T11:18:56.946Z,96899.34
2023-01-20T11:21:26.679Z,96902.84
2023-01-20T11:23:57.173Z,96871.91
2023-01-20T11:26:28.527Z,96904.59
2023-01-20T11:28:58.624Z,96905.41
2023-01-20T11:31:38.517Z,96896.00
2023-01-20T11:34:22.865Z,96816.25
2023-01-20T11:36:51.852Z,96910.56
2023-01-20T11:39:30.713Z,96902.81
2023-01-20T11:42:15.801Z,96899.38
2023-01-20T11:44:44.928Z,96875.44
2023-01-20T11:47:24.768Z,96899.50
2023-01-20T11:50:29.483Z,96909.81
2023-01-20T11:53:14.550Z,96905.47
2023-01-20T11:55:51.055Z,96905.47
2023-01-20T11:58:21.547Z,96836.81
2023-01-20T12:00:52.537Z,96910.66
2023-01-20T12:03:50.745Z,96902.91
2023-01-20T12:06:24.753Z,96888.31
2023-01-20T12:08:59.319Z,96725.38
2023-01-20T12:11:32.441Z,96912.28
2023-01-20T12:14:28.804Z,96910.50
2023-01-20T12:17:16.961Z,96909.66
2023-01-20T12:20:14.539Z,96917.44
2023-01-20T12:22:50.181Z,96916.59
2023-01-20T12:25:22.188Z,96877.94
2023-01-20T12:27:55.531Z,96895.06
2023-01-20T12:30:39.472Z,96937.13
2023-01-20T12:33:18.470Z,96936.25
2023-01-20T12:36:33.299Z,96915.47
2023-01-20T12:39:16.623Z,96884.53
2023-01-20T12:42:08.568Z,96920.59
2023-01-20T12:44:41.359Z,96911.13
2023-01-20T12:47:21.358Z,96847.63
2023-01-20T12:50:07.397Z,96889.63
2023-01-20T12:52:50.035Z,96849.38
2023-01-20T12:55:30.245Z,96923.19
2023-01-20T12:58:13.548Z,96919.72
2023-01-20T13:00:56.947Z,96917.16
2023-01-20T13:04:03.643Z,96891.50
2023-01-20T13:06:54.903Z,96906.13
2023-01-20T13:09:42.843Z,96890.66
2023-01-20T13:12:26.157Z,96790.38
2023-01-20T13:15:00.113Z,96928.34
2023-01-20T13:17:37.948Z,96926.78
2023-01-20T13:20:16.071Z,96930.22
2023-01-20T13:22:44.599Z,96940.56
2023-01-20T13:25:17.446Z,96923.34
2023-01-20T13:27:51.128Z,96836.72
2023-01-20T13:30:43.246Z,96946.47
2023-01-20T13:33:19.689Z,96942.13
2023-01-20T13:35:50.944Z,96906.97
2023-01-20T13:38:22.605Z,96956.00
2023-01-20T13:40:56.291Z,96949.09
2023-01-20T13:43:36.473Z,96934.56
2023-01-20T13:46:40.569Z,96957.72
2023-01-20T13:49:23.530Z,96932.81
2023-01-20T13:51:52.037Z,96959.41
2023-01-20T13:54:44.122Z,96959.41
2023-01-20T13:57:35.876Z,96959.44
2023-01-20T14:00:18.305Z,96961.19
2023-01-20T14:02:48.790Z,96852.34
2023-01-20T14:05:34.095Z,96970.72
2023-01-20T14:08:02.385Z,96968.13
2023-01-20T14:10:30.982Z,96971.53
2023-01-20T14:12:59.226Z,96949.19
2023-01-20T14:15:37.230Z,96971.50
2023-01-20T14:18:06.404Z,96981.03
2023-01-20T14:20:37.494Z,96979.28
2023-01-20T14:23:29.015Z,96981.88
2023-01-20T14:26:03.340Z,96979.25
2023-01-20T14:28:31.829Z,96991.44
2023-01-20T14:31:18.919Z,96972.50
2023-01-20T14:33:50.319Z,96952.78
2023-01-20T14:36:23.150Z,96985.38
2023-01-20T14:38:58.300Z,96966.50
2023-01-20T14:41:46.895Z,96904.81
2023-01-20T14:44:20.237Z,96998.31
2023-01-20T14:46:51.388Z,96989.72
2023-01-20T14:49:22.412Z,97008.63
2023-01-20T14:51:54.051Z,97008.66
2023-01-20T14:54:44.305Z,96970.00
2023-01-20T14:57:22.885Z,97019.81
2023-01-20T15:00:04.235Z,96979.50
2023-01-20T15:02:35.571Z,96872.25
2023-01-20T15:05:14.101Z,97003.56
2023-01-20T15:07:43.835Z,97021.63
2023-01-20T15:10:16.720Z,97030.19
2023-01-20T15:12:55.489Z,97033.59
2023-01-20T15:15:29.857Z,97015.56
2023-01-20T15:18:05.815Z,97019.03
2023-01-20T15:20:35.305Z,97040.50
2023-01-20T15:23:04.856Z,97040.56
2023-01-20T15:25:37.903Z,97037.09
2023-01-20T15:28:06.454Z,97025.09
2023-01-20T15:30:34.769Z,97046.59
2023-01-20T15:33:02.974Z,97040.63
2023-01-20T15:35:31.193Z,97051.81
2023-01-20T15:37:59.547Z,97047.53
2023-01-20T15:40:29.292Z,96886.13
2023-01-20T15:42:57.624Z,97052.66
2023-01-20T15:45:26.953Z,97052.66
2023-01-20T15:47:55.173Z,97048.38
2023-01-20T15:50:26.818Z,96971.16
2023-01-20T15:52:55.087Z,97023.53
2023-01-20T15:55:23.455Z,97057.09
2023-01-20T15:57:54.074Z,97063.13
2023-01-20T16:00:24.562Z,97040.75
2023-01-20T16:02:52.855Z,97061.34
2023-01-20T16:05:21.594Z,97070.84
2023-01-20T16:07:50.471Z,97037.38
2023-01-20T16:10:19.680Z,97069.19
2023-01-20T16:12:48.382Z,97050.25
2023-01-20T16:15:19.420Z,97072.63
2023-01-20T16:17:47.671Z,97077.78
2023-01-20T16:20:25.044Z,97049.41
2023-01-20T16:22:53.576Z,96845.03
2023-01-20T16:25:22.356Z,97077.78
2023-01-20T16:27:51.117Z,97058.91
2023-01-20T16:30:22.784Z,97077.81
2023-01-20T16:32:51.275Z,97078.69
2023-01-20T16:35:20.914Z,97089.00
2023-01-20T16:37:49.668Z,97088.97
2023-01-20T16:40:19.751Z,97088.16
2023-01-20T16:42:48.483Z,97086.41
2023-01-20T16:45:28.450Z,97089.88
2023-01-20T16:47:57.106Z,97090.75
2023-01-20T16:50:28.006Z,97068.41
2023-01-20T16:52:56.226Z,97093.34
2023-01-20T16:55:25.288Z,97095.06
2023-01-20T16:57:53.548Z,97095.06
2023-01-20T17:00:22.922Z,97101.09
2023-01-20T17:02:53.638Z,97063.25
2023-01-20T17:05:25.787Z,97097.63
2023-01-20T17:07:56.987Z,97101.94
2023-01-20T17:10:27.195Z,97114.00
2023-01-20T17:12:56.328Z,97084.75
2023-01-20T17:15:25.874Z,97105.38
2023-01-20T17:17:58.465Z,97079.59
2023-01-20T17:20:27.771Z,97083.06
2023-01-20T17:22:56.421Z,97085.63
2023-01-20T17:25:24.725Z,97083.88
2023-01-20T17:27:53.058Z,96979.91
2023-01-20T17:30:22.234Z,97102.81
2023-01-20T17:32:51.186Z,97061.56
2023-01-20T17:35:20.786Z,97093.38
2023-01-20T17:37:49.067Z,97098.53
2023-01-20T17:40:17.647Z,97099.38
2023-01-20T17:42:46.563Z,97091.66
2023-01-20T17:45:14.910Z,97095.13
2023-01-20T17:47:43.113Z,97084.78
2023-01-20T17:50:12.456Z,97094.22
2023-01-20T17:52:43.089Z,97059.00
2023-01-20T17:55:12.122Z,97071.91
2023-01-20T17:57:40.294Z,97092.53
2023-01-20T18:00:10.301Z,97066.72
2023-01-20T18:02:38.452Z,97094.25
2023-01-20T18:05:07.460Z,97038.38
2023-01-20T18:07:35.674Z,97095.16
2023-01-20T18:10:05.704Z,97091.72
2023-01-20T18:12:34.046Z,97090.81
2023-01-20T18:15:02.400Z,97071.06
2023-01-20T18:17:34.463Z,97085.69
2023-01-20T18:20:02.766Z,97091.72
2023-01-20T18:22:31.008Z,97061.59
2023-01-20T18:24:59.427Z,97099.44
2023-01-20T18:27:29.879Z,96978.19
2023-01-20T18:29:58.216Z,97090.84
2023-01-20T18:32:26.598Z,97060.75
2023-01-20T18:34:55.428Z,97054.72
2023-01-20T18:37:23.953Z,97069.34
2023-01-20T18:39:52.761Z,97097.69
2023-01-20T18:42:22.135Z,96883.66
2023-01-20T18:44:52.325Z,97091.69
2023-01-20T18:47:23.665Z,97097.69
2023-01-20T18:49:58.252Z,97098.56
2023-01-20T18:52:26.897Z,96968.72
2023-01-20T18:54:55.259Z,97056.41
2023-01-20T18:57:23.472Z,97097.72
2023-01-20T18:59:53.251Z,97082.22
2023-01-20T19:02:21.630Z,97102.88
2023-01-20T19:04:50.001Z,97101.13
2023-01-20T19:07:18.566Z,97077.03
2023-01-20T19:09:47.774Z,97101.16
2023-01-20T19:12:16.022Z,97339.13
2023-01-20T19:14:44.385Z,97105.41
2023-01-20T19:17:14.196Z,97040.91
2023-01-20T19:19:46.247Z,96989.34
2023-01-20T19:22:14.539Z,96984.22
2023-01-20T19:24:42.928Z,97023.75
2023-01-20T19:27:11.260Z,97099.41
2023-01-20T19:29:41.117Z,97089.09
2023-01-20T19:32:09.653Z,97072.75
2023-01-20T19:34:39.374Z,97099.44
2023-01-20T19:37:07.594Z,97079.66
2023-01-20T19:39:35.793Z,97077.09
2023-01-20T19:42:04.099Z,97100.31
2023-01-20T19:44:32.568Z,97105.44
2023-01-20T19:47:04.342Z,97073.59
2023-01-20T19:49:32.945Z,97101.16
2023-01-20T19:52:02.684Z,97110.59
2023-01-20T19:54:31.972Z,97111.47
2023-01-20T19:57:01.553Z,97093.38
2023-01-20T19:59:29.766Z,97105.41
2023-01-20T20:01:58.069Z,97091.63
2023-01-20T20:04:26.549Z,97089.94
2023-01-20T20:06:55.054Z,97116.63
2023-01-20T20:09:26.270Z,97117.47
2023-01-20T20:11:55.463Z,97113.16
2023-01-20T20:14:24.550Z,97118.34
2023-01-20T20:16:53.445Z,97115.78
2023-01-20T20:19:21.895Z,97120.03
2023-01-20T20:21:50.263Z,97120.06
2023-01-20T20:24:19.871Z,97099.41
2023-01-20T20:26:49.672Z,97115.78
2023-01-20T20:29:19.960Z,97130.34
2023-01-20T20:31:48.324Z,97113.16
2023-01-20T20:34:18.608Z,97115.75
2023-01-20T20:36:47.243Z,97120.09
2023-01-20T20:39:17.255Z,97102.00
2023-01-20T20:41:46.103Z,97118.34
2023-01-20T20:44:15.779Z,97119.19
2023-01-20T20:46:44.683Z,97122.66
2023-01-20T20:49:15.899Z,97102.00
2023-01-20T20:51:44.729Z,96987.59
2023-01-20T20:54:15.510Z,97097.69
2023-01-20T20:56:44.142Z,97126.91
2023-01-20T20:59:12.495Z,97091.63
2023-01-20T21:01:42.318Z,97098.56
2023-01-20T21:04:11.747Z,97058.09
2023-01-20T21:06:40.203Z,97117.47
2023-01-20T21:09:09.056Z,97115.72
2023-01-20T21:11:38.463Z,97097.69
2023-01-20T21:14:07.408Z,97130.38
2023-01-20T21:16:36.030Z,97135.53
2023-01-20T21:19:05.743Z,97135.53
2023-01-20T21:21:33.995Z,97129.53
2023-01-20T21:24:02.242Z,97126.94
2023-01-20T21:26:31.111Z,97129.50
2023-01-20T21:29:02.172Z,97137.28
2023-01-20T21:31:31.974Z,97022.81
2023-01-20T21:34:00.791Z,97106.28
2023-01-20T21:36:32.478Z,96983.34
2023-01-20T21:39:00.758Z,97139.84
2023-01-20T21:41:29.033Z,97136.41
2023-01-20T21:44:14.825Z,97156.22
2023-01-20T21:46:43.099Z,97151.94
2023-01-20T21:49:28.567Z,97160.50
2023-01-20T21:52:15.743Z,97150.19
2023-01-20T21:54:45.498Z,97010.84
2023-01-20T21:57:14.628Z,97136.41
2023-01-20T21:59:43.513Z,97151.03
2023-01-20T22:02:13.682Z,97152.78
2023-01-20T22:04:41.991Z,97134.69
2023-01-20T22:07:11.837Z,97151.06
2023-01-20T22:09:40.758Z,97173.41
2023-01-20T22:12:09.654Z,96974.72
2023-01-20T22:14:38.073Z,97178.56
2023-01-20T22:17:06.784Z,97182.00
2023-01-20T22:19:36.145Z,97155.34
2023-01-20T22:22:05.145Z,97103.72
2023-01-20T22:24:35.215Z,97097.69
2023-01-20T22:27:03.890Z,97178.59
2023-01-20T22:29:32.254Z,97153.66
2023-01-20T22:32:03.305Z,97154.50
2023-01-20T22:34:31.902Z,97188.94
2023-01-20T22:37:00.839Z,97163.94
2023-01-20T22:39:29.406Z,97182.88
2023-01-20T22:42:00.764Z,97173.44
2023-01-20T22:44:28.951Z,96893.13
2023-01-20T22:46:57.143Z,97170.84
2023-01-20T22:49:25.433Z,97185.47
2023-01-20T22:51:55.891Z,97173.44
2023-01-20T22:54:24.100Z,97169.13
2023-01-20T22:56:52.331Z,97173.41
2023-01-20T22:59:21.999Z,97101.16
2023-01-20T23:01:50.233Z,97165.66
2023-01-20T23:04:18.560Z,97154.47
2023-01-20T23:06:46.761Z,97157.91
2023-01-20T23:09:15.573Z,97040.09
2023-01-20T23:11:43.745Z,97138.97
2023-01-20T23:14:13.827Z,97121.78
2023-01-20T23:16:44.366Z,97161.38
2023-01-20T23:19:12.831Z,97168.28
2023-01-20T23:21:41.113Z,97126.97
2023-01-20T23:24:09.648Z,97142.47
2023-01-20T23:26:37.854Z,97161.38
2023-01-20T23:29:06.161Z,97154.50
2023-01-20T23:31:35.553Z,97154.50
2023-01-20T23:34:05.379Z,97150.19
2023-01-20T23:36:33.607Z,97104.59
2023-01-20T23:39:01.845Z,97151.94
2023-01-20T23:41:30.042Z,97157.09
2023-01-20T23:43:58.218Z,97250.88
2023-01-20T23:46:26.376Z,97152.78
2023-01-20T23:48:54.503Z,97149.34
2023-01-20T23:51:24.139Z,97027.22
2023-01-20T23:53:52.301Z,97149.34
2023-01-20T23:56:22.158Z,97056.44
2023-01-20T23:58:50.659Z,97114.06
